sensor_id;sensor_type;location;lat;lon;timestamp;P1;durP1;ratioP1;P2;durP2;ratioP2
18082;SDS011;9168;51.194;6.840;2023-05-07T00:00:35;8.70;;;4.80;;
18082;SDS011;9168;51.194;6.840;2023-05-07T00:03:02;7.50;;;4.38;;
18082;SDS011;9168;51.194;6.840;2023-05-07T00:05:30;10.13;;;5.10;;
18082;SDS011;9168;51.194;6.840;2023-05-07T00:07:57;7.25;;;4.30;;
18082;SDS011;9168;51.194;6.840;2023-05-07T00:10:24;7.38;;;4.50;;
18082;SDS011;9168;51.194;6.840;2023-05-07T00:12:52;6.55;;;3.70;;
18082;SDS011;9168;51.194;6.840;2023-05-07T00:15:19;11.23;;;4.38;;
18082;SDS011;9168;51.194;6.840;2023-05-07T00:17:46;9.52;;;4.60;;
18082;SDS011;9168;51.194;6.840;2023-05-07T00:20:13;10.80;;;4.93;;
18082;SDS011;9168;51.194;6.840;2023-05-07T00:22:40;7.78;;;3.80;;
18082;SDS011;9168;51.194;6.840;2023-05-07T00:25:07;6.68;;;4.50;;
18082;SDS011;9168;51.194;6.840;2023-05-07T00:27:35;9.43;;;4.53;;
18082;SDS011;9168;51.194;6.840;2023-05-07T00:30:04;8.30;;;4.38;;
18082;SDS011;9168;51.194;6.840;2023-05-07T00:32:32;13.15;;;4.80;;
18082;SDS011;9168;51.194;6.840;2023-05-07T00:34:58;10.65;;;4.90;;
18082;SDS011;9168;51.194;6.840;2023-05-07T00:37:25;8.20;;;3.83;;
18082;SDS011;9168;51.194;6.840;2023-05-07T00:39:52;7.43;;;3.90;;
18082;SDS011;9168;51.194;6.840;2023-05-07T00:42:19;9.13;;;4.30;;
18082;SDS011;9168;51.194;6.840;2023-05-07T00:44:46;9.68;;;4.10;;
18082;SDS011;9168;51.194;6.840;2023-05-07T00:47:14;8.25;;;4.35;;
18082;SDS011;9168;51.194;6.840;2023-05-07T00:49:43;10.30;;;4.57;;
18082;SDS011;9168;51.194;6.840;2023-05-07T00:52:11;10.38;;;4.38;;
18082;SDS011;9168;51.194;6.840;2023-05-07T00:54:40;9.98;;;4.97;;
18082;SDS011;9168;51.194;6.840;2023-05-07T00:57:08;9.30;;;4.20;;
18082;SDS011;9168;51.194;6.840;2023-05-07T00:59:36;7.55;;;3.92;;
18082;SDS011;9168;51.194;6.840;2023-05-07T01:02:03;12.00;;;4.57;;
18082;SDS011;9168;51.194;6.840;2023-05-07T01:04:31;8.10;;;4.13;;
18082;SDS011;9168;51.194;6.840;2023-05-07T01:06:58;8.80;;;4.00;;
18082;SDS011;9168;51.194;6.840;2023-05-07T01:09:27;9.00;;;3.85;;
18082;SDS011;9168;51.194;6.840;2023-05-07T01:11:55;8.82;;;4.45;;
18082;SDS011;9168;51.194;6.840;2023-05-07T01:14:23;7.80;;;4.15;;
18082;SDS011;9168;51.194;6.840;2023-05-07T01:16:50;7.28;;;4.22;;
18082;SDS011;9168;51.194;6.840;2023-05-07T01:19:18;7.45;;;4.00;;
18082;SDS011;9168;51.194;6.840;2023-05-07T01:21:47;7.90;;;4.57;;
18082;SDS011;9168;51.194;6.840;2023-05-07T01:24:16;8.60;;;4.05;;
18082;SDS011;9168;51.194;6.840;2023-05-07T01:26:44;8.23;;;4.63;;
18082;SDS011;9168;51.194;6.840;2023-05-07T01:29:11;9.50;;;4.00;;
18082;SDS011;9168;51.194;6.840;2023-05-07T01:31:38;8.02;;;4.10;;
18082;SDS011;9168;51.194;6.840;2023-05-07T01:34:08;10.57;;;4.38;;
18082;SDS011;9168;51.194;6.840;2023-05-07T01:36:36;8.43;;;4.03;;
18082;SDS011;9168;51.194;6.840;2023-05-07T01:39:05;8.20;;;4.28;;
18082;SDS011;9168;51.194;6.840;2023-05-07T01:41:34;8.95;;;4.43;;
18082;SDS011;9168;51.194;6.840;2023-05-07T01:44:01;7.05;;;4.30;;
18082;SDS011;9168;51.194;6.840;2023-05-07T01:46:29;9.48;;;3.80;;
18082;SDS011;9168;51.194;6.840;2023-05-07T01:48:57;7.57;;;4.28;;
18082;SDS011;9168;51.194;6.840;2023-05-07T01:51:24;10.48;;;4.18;;
18082;SDS011;9168;51.194;6.840;2023-05-07T01:53:52;7.80;;;4.25;;
18082;SDS011;9168;51.194;6.840;2023-05-07T01:56:19;10.13;;;4.28;;
18082;SDS011;9168;51.194;6.840;2023-05-07T01:58:47;7.85;;;4.40;;
18082;SDS011;9168;51.194;6.840;2023-05-07T02:01:16;9.30;;;3.65;;
18082;SDS011;9168;51.194;6.840;2023-05-07T02:03:43;9.30;;;4.00;;
18082;SDS011;9168;51.194;6.840;2023-05-07T02:06:10;10.50;;;4.30;;
18082;SDS011;9168;51.194;6.840;2023-05-07T02:08:36;9.40;;;4.57;;
18082;SDS011;9168;51.194;6.840;2023-05-07T02:11:03;7.53;;;4.43;;
18082;SDS011;9168;51.194;6.840;2023-05-07T02:13:32;10.43;;;4.28;;
18082;SDS011;9168;51.194;6.840;2023-05-07T02:16:01;9.45;;;4.07;;
18082;SDS011;9168;51.194;6.840;2023-05-07T02:18:28;7.70;;;4.00;;
18082;SDS011;9168;51.194;6.840;2023-05-07T02:20:55;11.50;;;4.50;;
18082;SDS011;9168;51.194;6.840;2023-05-07T02:23:22;5.63;;;3.83;;
18082;SDS011;9168;51.194;6.840;2023-05-07T02:25:49;7.93;;;4.40;;
18082;SDS011;9168;51.194;6.840;2023-05-07T02:28:16;7.68;;;4.22;;
18082;SDS011;9168;51.194;6.840;2023-05-07T02:30:43;7.97;;;3.92;;
18082;SDS011;9168;51.194;6.840;2023-05-07T02:33:11;6.38;;;4.05;;
18082;SDS011;9168;51.194;6.840;2023-05-07T02:35:39;10.25;;;4.65;;
18082;SDS011;9168;51.194;6.840;2023-05-07T02:38:05;7.57;;;4.57;;
18082;SDS011;9168;51.194;6.840;2023-05-07T02:40:32;10.10;;;4.38;;
18082;SDS011;9168;51.194;6.840;2023-05-07T02:43:03;7.07;;;4.22;;
18082;SDS011;9168;51.194;6.840;2023-05-07T02:45:30;9.38;;;4.50;;
18082;SDS011;9168;51.194;6.840;2023-05-07T02:47:57;8.70;;;4.15;;
18082;SDS011;9168;51.194;6.840;2023-05-07T02:50:26;10.10;;;4.35;;
18082;SDS011;9168;51.194;6.840;2023-05-07T02:52:53;7.22;;;3.90;;
18082;SDS011;9168;51.194;6.840;2023-05-07T02:55:20;8.27;;;4.07;;
18082;SDS011;9168;51.194;6.840;2023-05-07T02:57:47;8.50;;;3.92;;
18082;SDS011;9168;51.194;6.840;2023-05-07T03:00:14;9.25;;;3.95;;
18082;SDS011;9168;51.194;6.840;2023-05-07T03:02:42;7.75;;;3.83;;
18082;SDS011;9168;51.194;6.840;2023-05-07T03:05:09;7.57;;;3.58;;
18082;SDS011;9168;51.194;6.840;2023-05-07T03:07:39;5.35;;;3.47;;
18082;SDS011;9168;51.194;6.840;2023-05-07T03:10:06;11.05;;;3.97;;
18082;SDS011;9168;51.194;6.840;2023-05-07T03:12:33;7.70;;;3.55;;
18082;SDS011;9168;51.194;6.840;2023-05-07T03:15:00;8.85;;;3.80;;
18082;SDS011;9168;51.194;6.840;2023-05-07T03:17:27;10.20;;;3.90;;
18082;SDS011;9168;51.194;6.840;2023-05-07T03:19:54;8.68;;;3.35;;
18082;SDS011;9168;51.194;6.840;2023-05-07T03:22:21;7.00;;;3.88;;
18082;SDS011;9168;51.194;6.840;2023-05-07T03:24:49;7.07;;;3.45;;
18082;SDS011;9168;51.194;6.840;2023-05-07T03:27:16;6.68;;;3.70;;
18082;SDS011;9168;51.194;6.840;2023-05-07T03:29:43;6.22;;;3.30;;
18082;SDS011;9168;51.194;6.840;2023-05-07T03:32:10;5.68;;;3.47;;
18082;SDS011;9168;51.194;6.840;2023-05-07T03:34:37;8.38;;;3.22;;
18082;SDS011;9168;51.194;6.840;2023-05-07T03:37:04;9.57;;;3.10;;
18082;SDS011;9168;51.194;6.840;2023-05-07T03:39:30;8.82;;;3.55;;
18082;SDS011;9168;51.194;6.840;2023-05-07T03:41:59;5.25;;;3.03;;
18082;SDS011;9168;51.194;6.840;2023-05-07T03:44:26;9.15;;;3.83;;
18082;SDS011;9168;51.194;6.840;2023-05-07T03:46:53;5.47;;;2.90;;
18082;SDS011;9168;51.194;6.840;2023-05-07T03:49:20;9.95;;;3.55;;
18082;SDS011;9168;51.194;6.840;2023-05-07T03:51:47;8.55;;;3.95;;
18082;SDS011;9168;51.194;6.840;2023-05-07T03:54:14;6.57;;;3.30;;
18082;SDS011;9168;51.194;6.840;2023-05-07T03:56:41;11.52;;;3.38;;
18082;SDS011;9168;51.194;6.840;2023-05-07T03:59:09;4.68;;;2.90;;
18082;SDS011;9168;51.194;6.840;2023-05-07T04:01:36;7.43;;;3.33;;
18082;SDS011;9168;51.194;6.840;2023-05-07T04:04:02;4.63;;;3.05;;
18082;SDS011;9168;51.194;6.840;2023-05-07T04:06:29;7.32;;;2.97;;
18082;SDS011;9168;51.194;6.840;2023-05-07T04:08:56;5.85;;;3.20;;
18082;SDS011;9168;51.194;6.840;2023-05-07T04:11:23;10.18;;;3.70;;
18082;SDS011;9168;51.194;6.840;2023-05-07T04:13:50;5.40;;;3.20;;
18082;SDS011;9168;51.194;6.840;2023-05-07T04:16:19;6.07;;;3.10;;
18082;SDS011;9168;51.194;6.840;2023-05-07T04:18:45;6.78;;;3.83;;
18082;SDS011;9168;51.194;6.840;2023-05-07T04:21:15;6.18;;;3.40;;
18082;SDS011;9168;51.194;6.840;2023-05-07T04:23:42;6.35;;;3.38;;
18082;SDS011;9168;51.194;6.840;2023-05-07T04:26:09;10.80;;;3.45;;
18082;SDS011;9168;51.194;6.840;2023-05-07T04:28:36;6.00;;;2.83;;
18082;SDS011;9168;51.194;6.840;2023-05-07T04:31:04;8.90;;;3.20;;
18082;SDS011;9168;51.194;6.840;2023-05-07T04:33:32;6.10;;;2.92;;
18082;SDS011;9168;51.194;6.840;2023-05-07T04:36:01;5.35;;;2.83;;
18082;SDS011;9168;51.194;6.840;2023-05-07T04:38:29;7.53;;;3.13;;
18082;SDS011;9168;51.194;6.840;2023-05-07T04:40:56;7.50;;;3.17;;
18082;SDS011;9168;51.194;6.840;2023-05-07T04:43:23;4.65;;;2.70;;
18082;SDS011;9168;51.194;6.840;2023-05-07T04:45:50;6.57;;;3.10;;
18082;SDS011;9168;51.194;6.840;2023-05-07T04:48:17;7.57;;;2.83;;
18082;SDS011;9168;51.194;6.840;2023-05-07T04:50:48;6.07;;;2.17;;
18082;SDS011;9168;51.194;6.840;2023-05-07T04:53:15;5.53;;;2.50;;
18082;SDS011;9168;51.194;6.840;2023-05-07T04:55:42;5.72;;;2.60;;
18082;SDS011;9168;51.194;6.840;2023-05-07T04:58:10;7.45;;;3.00;;
18082;SDS011;9168;51.194;6.840;2023-05-07T05:00:36;8.75;;;2.65;;
18082;SDS011;9168;51.194;6.840;2023-05-07T05:03:03;8.95;;;2.95;;
18082;SDS011;9168;51.194;6.840;2023-05-07T05:05:31;7.20;;;2.80;;
18082;SDS011;9168;51.194;6.840;2023-05-07T05:07:59;4.20;;;2.70;;
18082;SDS011;9168;51.194;6.840;2023-05-07T05:10:26;14.93;;;3.17;;
18082;SDS011;9168;51.194;6.840;2023-05-07T05:12:53;4.00;;;2.60;;
18082;SDS011;9168;51.194;6.840;2023-05-07T05:15:20;5.57;;;2.65;;
18082;SDS011;9168;51.194;6.840;2023-05-07T05:17:47;5.30;;;2.50;;
18082;SDS011;9168;51.194;6.840;2023-05-07T05:20:13;4.93;;;2.47;;
18082;SDS011;9168;51.194;6.840;2023-05-07T05:22:41;6.25;;;2.83;;
18082;SDS011;9168;51.194;6.840;2023-05-07T05:25:09;5.93;;;2.88;;
18082;SDS011;9168;51.194;6.840;2023-05-07T05:27:36;6.07;;;2.70;;
18082;SDS011;9168;51.194;6.840;2023-05-07T05:30:03;4.57;;;2.60;;
18082;SDS011;9168;51.194;6.840;2023-05-07T05:32:31;6.40;;;2.92;;
18082;SDS011;9168;51.194;6.840;2023-05-07T05:34:58;7.97;;;2.50;;
18082;SDS011;9168;51.194;6.840;2023-05-07T05:37:25;4.03;;;2.38;;
18082;SDS011;9168;51.194;6.840;2023-05-07T05:39:52;4.63;;;2.33;;
18082;SDS011;9168;51.194;6.840;2023-05-07T05:42:21;5.20;;;2.60;;
18082;SDS011;9168;51.194;6.840;2023-05-07T05:44:48;4.78;;;2.45;;
18082;SDS011;9168;51.194;6.840;2023-05-07T05:47:14;5.95;;;2.58;;
18082;SDS011;9168;51.194;6.840;2023-05-07T05:49:41;4.22;;;2.35;;
18082;SDS011;9168;51.194;6.840;2023-05-07T05:52:09;5.32;;;2.67;;
18082;SDS011;9168;51.194;6.840;2023-05-07T05:54:36;4.15;;;2.42;;
18082;SDS011;9168;51.194;6.840;2023-05-07T05:57:03;7.57;;;2.70;;
18082;SDS011;9168;51.194;6.840;2023-05-07T05:59:32;4.43;;;2.80;;
18082;SDS011;9168;51.194;6.840;2023-05-07T06:01:59;6.85;;;3.17;;
18082;SDS011;9168;51.194;6.840;2023-05-07T06:04:26;8.93;;;2.80;;
18082;SDS011;9168;51.194;6.840;2023-05-07T06:06:53;7.70;;;3.00;;
18082;SDS011;9168;51.194;6.840;2023-05-07T06:09:19;7.63;;;3.20;;
18082;SDS011;9168;51.194;6.840;2023-05-07T06:11:46;7.47;;;2.78;;
18082;SDS011;9168;51.194;6.840;2023-05-07T06:14:13;8.27;;;2.95;;
18082;SDS011;9168;51.194;6.840;2023-05-07T06:16:41;6.57;;;2.67;;
18082;SDS011;9168;51.194;6.840;2023-05-07T06:19:08;5.20;;;2.80;;
18082;SDS011;9168;51.194;6.840;2023-05-07T06:21:35;4.95;;;2.28;;
18082;SDS011;9168;51.194;6.840;2023-05-07T06:26:59;6.30;;;2.88;;
18082;SDS011;9168;51.194;6.840;2023-05-07T06:32:24;11.05;;;3.00;;
18082;SDS011;9168;51.194;6.840;2023-05-07T06:34:50;10.82;;;2.53;;
18082;SDS011;9168;51.194;6.840;2023-05-07T06:37:17;6.30;;;2.50;;
18082;SDS011;9168;51.194;6.840;2023-05-07T06:39:44;7.95;;;2.83;;
18082;SDS011;9168;51.194;6.840;2023-05-07T06:42:11;5.90;;;2.72;;
18082;SDS011;9168;51.194;6.840;2023-05-07T06:44:38;5.72;;;2.78;;
18082;SDS011;9168;51.194;6.840;2023-05-07T06:47:05;8.50;;;2.40;;
18082;SDS011;9168;51.194;6.840;2023-05-07T06:49:33;9.07;;;3.35;;
18082;SDS011;9168;51.194;6.840;2023-05-07T06:52:00;4.60;;;2.72;;
18082;SDS011;9168;51.194;6.840;2023-05-07T06:54:26;5.72;;;2.40;;
18082;SDS011;9168;51.194;6.840;2023-05-07T06:56:55;5.15;;;2.83;;
18082;SDS011;9168;51.194;6.840;2023-05-07T06:59:21;4.32;;;2.55;;
18082;SDS011;9168;51.194;6.840;2023-05-07T07:01:49;6.20;;;2.50;;
18082;SDS011;9168;51.194;6.840;2023-05-07T07:04:16;5.70;;;2.40;;
18082;SDS011;9168;51.194;6.840;2023-05-07T07:06:44;5.32;;;2.50;;
18082;SDS011;9168;51.194;6.840;2023-05-07T07:09:12;6.53;;;2.45;;
18082;SDS011;9168;51.194;6.840;2023-05-07T07:11:38;6.03;;;2.60;;
18082;SDS011;9168;51.194;6.840;2023-05-07T07:14:05;7.00;;;2.33;;
18082;SDS011;9168;51.194;6.840;2023-05-07T07:16:32;4.72;;;2.28;;
18082;SDS011;9168;51.194;6.840;2023-05-07T07:18:59;4.10;;;2.33;;
18082;SDS011;9168;51.194;6.840;2023-05-07T07:21:26;5.43;;;2.30;;
18082;SDS011;9168;51.194;6.840;2023-05-07T07:23:54;3.88;;;2.15;;
18082;SDS011;9168;51.194;6.840;2023-05-07T07:26:21;4.03;;;2.30;;
18082;SDS011;9168;51.194;6.840;2023-05-07T07:28:48;5.47;;;2.05;;
18082;SDS011;9168;51.194;6.840;2023-05-07T07:31:15;6.80;;;2.20;;
18082;SDS011;9168;51.194;6.840;2023-05-07T07:33:41;4.95;;;2.30;;
18082;SDS011;9168;51.194;6.840;2023-05-07T07:36:09;4.80;;;2.10;;
18082;SDS011;9168;51.194;6.840;2023-05-07T07:38:36;6.00;;;2.20;;
18082;SDS011;9168;51.194;6.840;2023-05-07T07:41:04;9.30;;;2.42;;
18082;SDS011;9168;51.194;6.840;2023-05-07T07:43:31;6.07;;;1.90;;
18082;SDS011;9168;51.194;6.840;2023-05-07T07:45:58;6.60;;;1.73;;
18082;SDS011;9168;51.194;6.840;2023-05-07T07:48:24;4.50;;;2.38;;
18082;SDS011;9168;51.194;6.840;2023-05-07T07:50:51;6.05;;;2.60;;
18082;SDS011;9168;51.194;6.840;2023-05-07T07:53:18;3.55;;;2.10;;
18082;SDS011;9168;51.194;6.840;2023-05-07T07:55:45;5.53;;;1.98;;
18082;SDS011;9168;51.194;6.840;2023-05-07T07:58:13;4.70;;;1.75;;
18082;SDS011;9168;51.194;6.840;2023-05-07T08:00:40;2.75;;;1.92;;
18082;SDS011;9168;51.194;6.840;2023-05-07T08:03:08;7.18;;;2.05;;
18082;SDS011;9168;51.194;6.840;2023-05-07T08:05:36;5.43;;;2.15;;
18082;SDS011;9168;51.194;6.840;2023-05-07T08:08:03;6.25;;;2.20;;
18082;SDS011;9168;51.194;6.840;2023-05-07T08:10:30;11.90;;;2.05;;
18082;SDS011;9168;51.194;6.840;2023-05-07T08:12:59;2.83;;;1.50;;
18082;SDS011;9168;51.194;6.840;2023-05-07T08:15:28;5.43;;;2.63;;
18082;SDS011;9168;51.194;6.840;2023-05-07T08:17:54;4.32;;;2.00;;
18082;SDS011;9168;51.194;6.840;2023-05-07T08:20:22;5.10;;;2.60;;
18082;SDS011;9168;51.194;6.840;2023-05-07T08:22:49;7.05;;;2.30;;
18082;SDS011;9168;51.194;6.840;2023-05-07T08:25:17;6.60;;;2.38;;
18082;SDS011;9168;51.194;6.840;2023-05-07T08:27:44;5.18;;;2.30;;
18082;SDS011;9168;51.194;6.840;2023-05-07T08:30:11;5.28;;;2.20;;
18082;SDS011;9168;51.194;6.840;2023-05-07T08:32:40;3.65;;;2.15;;
18082;SDS011;9168;51.194;6.840;2023-05-07T08:35:07;4.07;;;2.15;;
18082;SDS011;9168;51.194;6.840;2023-05-07T08:37:34;5.18;;;2.05;;
18082;SDS011;9168;51.194;6.840;2023-05-07T08:40:01;4.05;;;2.35;;
18082;SDS011;9168;51.194;6.840;2023-05-07T08:42:29;4.72;;;2.17;;
18082;SDS011;9168;51.194;6.840;2023-05-07T08:44:57;5.20;;;2.00;;
18082;SDS011;9168;51.194;6.840;2023-05-07T08:47:29;7.20;;;1.88;;
18082;SDS011;9168;51.194;6.840;2023-05-07T08:50:04;8.48;;;2.00;;
18082;SDS011;9168;51.194;6.840;2023-05-07T08:52:32;5.68;;;2.40;;
18082;SDS011;9168;51.194;6.840;2023-05-07T08:54:59;8.80;;;2.28;;
18082;SDS011;9168;51.194;6.840;2023-05-07T08:57:28;6.03;;;2.10;;
18082;SDS011;9168;51.194;6.840;2023-05-07T09:00:04;4.10;;;2.20;;
18082;SDS011;9168;51.194;6.840;2023-05-07T09:02:32;8.27;;;2.38;;
18082;SDS011;9168;51.194;6.840;2023-05-07T09:04:59;5.75;;;2.47;;
18082;SDS011;9168;51.194;6.840;2023-05-07T09:07:27;4.90;;;2.17;;
18082;SDS011;9168;51.194;6.840;2023-05-07T09:09:55;5.57;;;2.60;;
18082;SDS011;9168;51.194;6.840;2023-05-07T09:12:23;10.65;;;2.22;;
18082;SDS011;9168;51.194;6.840;2023-05-07T09:14:50;8.07;;;2.38;;
18082;SDS011;9168;51.194;6.840;2023-05-07T09:17:17;6.97;;;2.30;;
18082;SDS011;9168;51.194;6.840;2023-05-07T09:19:44;4.00;;;2.22;;
18082;SDS011;9168;51.194;6.840;2023-05-07T09:22:11;5.43;;;2.40;;
18082;SDS011;9168;51.194;6.840;2023-05-07T09:24:39;5.18;;;2.03;;
18082;SDS011;9168;51.194;6.840;2023-05-07T09:27:07;5.75;;;2.30;;
18082;SDS011;9168;51.194;6.840;2023-05-07T09:29:35;8.88;;;2.67;;
18082;SDS011;9168;51.194;6.840;2023-05-07T09:32:03;5.53;;;2.60;;
18082;SDS011;9168;51.194;6.840;2023-05-07T09:34:31;6.05;;;2.33;;
18082;SDS011;9168;51.194;6.840;2023-05-07T09:36:58;7.80;;;1.98;;
18082;SDS011;9168;51.194;6.840;2023-05-07T09:39:25;6.82;;;2.22;;
18082;SDS011;9168;51.194;6.840;2023-05-07T09:41:53;4.10;;;2.20;;
18082;SDS011;9168;51.194;6.840;2023-05-07T09:44:20;3.90;;;1.90;;
18082;SDS011;9168;51.194;6.840;2023-05-07T09:46:51;4.80;;;2.40;;
18082;SDS011;9168;51.194;6.840;2023-05-07T09:49:21;4.93;;;2.25;;
18082;SDS011;9168;51.194;6.840;2023-05-07T09:51:50;6.30;;;2.28;;
18082;SDS011;9168;51.194;6.840;2023-05-07T09:54:18;6.78;;;2.40;;
18082;SDS011;9168;51.194;6.840;2023-05-07T09:56:45;7.93;;;2.42;;
18082;SDS011;9168;51.194;6.840;2023-05-07T09:59:15;9.48;;;2.70;;
18082;SDS011;9168;51.194;6.840;2023-05-07T10:01:43;5.22;;;2.42;;
18082;SDS011;9168;51.194;6.840;2023-05-07T10:04:11;6.72;;;2.42;;
18082;SDS011;9168;51.194;6.840;2023-05-07T10:06:38;6.78;;;2.08;;
18082;SDS011;9168;51.194;6.840;2023-05-07T10:09:06;3.85;;;1.90;;
18082;SDS011;9168;51.194;6.840;2023-05-07T10:11:34;6.20;;;1.60;;
18082;SDS011;9168;51.194;6.840;2023-05-07T10:14:03;3.38;;;1.95;;
18082;SDS011;9168;51.194;6.840;2023-05-07T10:16:33;13.98;;;2.28;;
18082;SDS011;9168;51.194;6.840;2023-05-07T10:19:02;5.20;;;2.00;;
18082;SDS011;9168;51.194;6.840;2023-05-07T10:21:29;6.13;;;2.30;;
18082;SDS011;9168;51.194;6.840;2023-05-07T10:23:58;3.65;;;1.83;;
18082;SDS011;9168;51.194;6.840;2023-05-07T10:26:31;4.10;;;1.55;;
18082;SDS011;9168;51.194;6.840;2023-05-07T10:29:02;4.55;;;1.90;;
18082;SDS011;9168;51.194;6.840;2023-05-07T10:31:49;7.28;;;2.13;;
18082;SDS011;9168;51.194;6.840;2023-05-07T10:34:23;3.72;;;1.83;;
18082;SDS011;9168;51.194;6.840;2023-05-07T10:36:52;5.55;;;1.90;;
18082;SDS011;9168;51.194;6.840;2023-05-07T10:39:21;9.18;;;2.05;;
18082;SDS011;9168;51.194;6.840;2023-05-07T10:41:48;4.38;;;2.00;;
18082;SDS011;9168;51.194;6.840;2023-05-07T10:44:24;5.45;;;2.22;;
18082;SDS011;9168;51.194;6.840;2023-05-07T10:55:49;4.10;;;1.88;;
18082;SDS011;9168;51.194;6.840;2023-05-07T10:58:26;3.10;;;1.60;;
18082;SDS011;9168;51.194;6.840;2023-05-07T11:00:57;3.35;;;1.73;;
18082;SDS011;9168;51.194;6.840;2023-05-07T11:03:27;3.30;;;1.80;;
18082;SDS011;9168;51.194;6.840;2023-05-07T11:06:11;3.30;;;1.58;;
18082;SDS011;9168;51.194;6.840;2023-05-07T11:17:11;3.40;;;1.70;;
18082;SDS011;9168;51.194;6.840;2023-05-07T11:19:48;3.67;;;1.90;;
18082;SDS011;9168;51.194;6.840;2023-05-07T11:22:35;4.63;;;1.90;;
18082;SDS011;9168;51.194;6.840;2023-05-07T11:25:05;5.97;;;1.88;;
18082;SDS011;9168;51.194;6.840;2023-05-07T11:27:32;11.15;;;2.00;;
18082;SDS011;9168;51.194;6.840;2023-05-07T11:29:59;5.25;;;1.98;;
18082;SDS011;9168;51.194;6.840;2023-05-07T11:32:27;3.42;;;1.90;;
18082;SDS011;9168;51.194;6.840;2023-05-07T11:34:56;2.70;;;1.67;;
18082;SDS011;9168;51.194;6.840;2023-05-07T11:37:25;6.75;;;1.95;;
18082;SDS011;9168;51.194;6.840;2023-05-07T11:40:02;2.05;;;1.50;;
18082;SDS011;9168;51.194;6.840;2023-05-07T11:42:31;2.97;;;1.73;;
18082;SDS011;9168;51.194;6.840;2023-05-07T11:45:00;6.38;;;1.60;;
18082;SDS011;9168;51.194;6.840;2023-05-07T11:47:29;5.95;;;1.80;;
18082;SDS011;9168;51.194;6.840;2023-05-07T11:50:03;2.78;;;1.50;;
18082;SDS011;9168;51.194;6.840;2023-05-07T11:52:31;5.50;;;1.90;;
18082;SDS011;9168;51.194;6.840;2023-05-07T11:54:58;3.70;;;1.90;;
18082;SDS011;9168;51.194;6.840;2023-05-07T11:57:26;4.32;;;1.88;;
18082;SDS011;9168;51.194;6.840;2023-05-07T11:59:53;2.75;;;1.63;;
18082;SDS011;9168;51.194;6.840;2023-05-07T12:02:20;8.38;;;2.00;;
18082;SDS011;9168;51.194;6.840;2023-05-07T12:04:49;2.40;;;1.88;;
18082;SDS011;9168;51.194;6.840;2023-05-07T12:07:18;4.10;;;1.83;;
18082;SDS011;9168;51.194;6.840;2023-05-07T12:09:45;3.58;;;1.90;;
18082;SDS011;9168;51.194;6.840;2023-05-07T12:12:12;3.75;;;1.90;;
18082;SDS011;9168;51.194;6.840;2023-05-07T12:14:40;2.05;;;1.60;;
18082;SDS011;9168;51.194;6.840;2023-05-07T12:17:08;4.18;;;1.80;;
18082;SDS011;9168;51.194;6.840;2023-05-07T12:19:36;5.40;;;1.90;;
18082;SDS011;9168;51.194;6.840;2023-05-07T12:22:05;6.82;;;2.13;;
18082;SDS011;9168;51.194;6.840;2023-05-07T12:24:45;2.47;;;1.40;;
18082;SDS011;9168;51.194;6.840;2023-05-07T12:27:13;3.58;;;1.90;;
18082;SDS011;9168;51.194;6.840;2023-05-07T12:29:43;3.75;;;1.95;;
18082;SDS011;9168;51.194;6.840;2023-05-07T12:32:12;4.00;;;1.65;;
18082;SDS011;9168;51.194;6.840;2023-05-07T12:34:40;2.90;;;1.70;;
18082;SDS011;9168;51.194;6.840;2023-05-07T12:37:07;2.33;;;1.75;;
18082;SDS011;9168;51.194;6.840;2023-05-07T12:39:34;3.42;;;1.50;;
18082;SDS011;9168;51.194;6.840;2023-05-07T12:42:02;3.42;;;2.03;;
18082;SDS011;9168;51.194;6.840;2023-05-07T12:44:30;5.93;;;1.88;;
18082;SDS011;9168;51.194;6.840;2023-05-07T12:46:58;3.00;;;1.60;;
18082;SDS011;9168;51.194;6.840;2023-05-07T12:49:27;2.88;;;1.70;;
18082;SDS011;9168;51.194;6.840;2023-05-07T12:51:54;4.00;;;2.00;;
18082;SDS011;9168;51.194;6.840;2023-05-07T12:54:28;3.25;;;1.88;;
18082;SDS011;9168;51.194;6.840;2023-05-07T12:57:00;3.05;;;1.85;;
18082;SDS011;9168;51.194;6.840;2023-05-07T12:59:33;4.30;;;2.00;;
18082;SDS011;9168;51.194;6.840;2023-05-07T13:02:01;7.18;;;1.95;;
18082;SDS011;9168;51.194;6.840;2023-05-07T13:04:28;10.30;;;2.30;;
18082;SDS011;9168;51.194;6.840;2023-05-07T13:06:55;5.65;;;2.70;;
18082;SDS011;9168;51.194;6.840;2023-05-07T13:09:21;6.03;;;2.35;;
18082;SDS011;9168;51.194;6.840;2023-05-07T13:11:48;6.32;;;2.25;;
18082;SDS011;9168;51.194;6.840;2023-05-07T13:14:17;4.25;;;1.83;;
18082;SDS011;9168;51.194;6.840;2023-05-07T13:16:45;7.00;;;1.92;;
18082;SDS011;9168;51.194;6.840;2023-05-07T13:19:12;5.50;;;1.80;;
18082;SDS011;9168;51.194;6.840;2023-05-07T13:21:39;6.15;;;2.05;;
18082;SDS011;9168;51.194;6.840;2023-05-07T13:24:06;7.10;;;2.35;;
18082;SDS011;9168;51.194;6.840;2023-05-07T13:26:34;4.25;;;2.70;;
18082;SDS011;9168;51.194;6.840;2023-05-07T13:29:00;9.75;;;2.40;;
18082;SDS011;9168;51.194;6.840;2023-05-07T13:31:29;10.75;;;2.60;;
18082;SDS011;9168;51.194;6.840;2023-05-07T13:33:56;6.40;;;2.50;;
18082;SDS011;9168;51.194;6.840;2023-05-07T13:36:22;11.05;;;3.50;;
18082;SDS011;9168;51.194;6.840;2023-05-07T13:38:49;14.60;;;5.20;;
18082;SDS011;9168;51.194;6.840;2023-05-07T13:41:17;10.93;;;3.08;;
18082;SDS011;9168;51.194;6.840;2023-05-07T13:43:44;12.48;;;3.45;;
18082;SDS011;9168;51.194;6.840;2023-05-07T13:46:11;10.25;;;3.13;;
18082;SDS011;9168;51.194;6.840;2023-05-07T13:48:39;10.32;;;3.70;;
18082;SDS011;9168;51.194;6.840;2023-05-07T13:51:06;9.05;;;3.35;;
18082;SDS011;9168;51.194;6.840;2023-05-07T13:53:33;8.13;;;3.65;;
18082;SDS011;9168;51.194;6.840;2023-05-07T13:56:00;8.63;;;3.25;;
18082;SDS011;9168;51.194;6.840;2023-05-07T13:58:29;7.80;;;3.33;;
18082;SDS011;9168;51.194;6.840;2023-05-07T14:00:56;32.97;;;6.97;;
18082;SDS011;9168;51.194;6.840;2023-05-07T14:03:23;34.22;;;8.07;;
18082;SDS011;9168;51.194;6.840;2023-05-07T14:05:51;32.90;;;7.95;;
18082;SDS011;9168;51.194;6.840;2023-05-07T14:08:18;199.32;;;12.30;;
18082;SDS011;9168;51.194;6.840;2023-05-07T14:10:45;34.58;;;8.30;;
18082;SDS011;9168;51.194;6.840;2023-05-07T14:13:12;26.23;;;5.78;;
18082;SDS011;9168;51.194;6.840;2023-05-07T14:15:39;14.18;;;5.00;;
18082;SDS011;9168;51.194;6.840;2023-05-07T14:18:08;22.75;;;4.85;;
18082;SDS011;9168;51.194;6.840;2023-05-07T14:20:35;26.35;;;5.25;;
18082;SDS011;9168;51.194;6.840;2023-05-07T14:23:04;23.67;;;4.82;;
18082;SDS011;9168;51.194;6.840;2023-05-07T14:25:31;18.73;;;5.30;;
18082;SDS011;9168;51.194;6.840;2023-05-07T14:27:58;16.45;;;6.20;;
18082;SDS011;9168;51.194;6.840;2023-05-07T14:30:26;17.10;;;6.10;;
18082;SDS011;9168;51.194;6.840;2023-05-07T14:32:53;13.55;;;6.57;;
18082;SDS011;9168;51.194;6.840;2023-05-07T14:35:20;18.85;;;6.65;;
18082;SDS011;9168;51.194;6.840;2023-05-07T14:37:46;14.93;;;6.38;;
18082;SDS011;9168;51.194;6.840;2023-05-07T14:40:15;12.95;;;7.18;;
18082;SDS011;9168;51.194;6.840;2023-05-07T14:42:42;22.02;;;9.27;;
18082;SDS011;9168;51.194;6.840;2023-05-07T14:45:09;14.02;;;8.05;;
18082;SDS011;9168;51.194;6.840;2023-05-07T14:47:36;18.42;;;9.35;;
18082;SDS011;9168;51.194;6.840;2023-05-07T14:50:03;15.85;;;9.13;;
18082;SDS011;9168;51.194;6.840;2023-05-07T14:52:31;18.88;;;10.13;;
18082;SDS011;9168;51.194;6.840;2023-05-07T14:54:59;13.30;;;8.45;;
18082;SDS011;9168;51.194;6.840;2023-05-07T14:57:28;16.42;;;8.38;;
18082;SDS011;9168;51.194;6.840;2023-05-07T14:59:55;16.08;;;8.80;;
18082;SDS011;9168;51.194;6.840;2023-05-07T15:02:21;14.25;;;8.25;;
18082;SDS011;9168;51.194;6.840;2023-05-07T15:04:48;12.00;;;7.50;;
18082;SDS011;9168;51.194;6.840;2023-05-07T15:07:15;15.27;;;9.25;;
18082;SDS011;9168;51.194;6.840;2023-05-07T15:09:42;15.07;;;8.25;;
18082;SDS011;9168;51.194;6.840;2023-05-07T15:12:09;14.30;;;8.82;;
18082;SDS011;9168;51.194;6.840;2023-05-07T15:14:38;16.55;;;8.35;;
18082;SDS011;9168;51.194;6.840;2023-05-07T15:17:05;14.73;;;7.18;;
18082;SDS011;9168;51.194;6.840;2023-05-07T15:19:32;11.48;;;6.88;;
18082;SDS011;9168;51.194;6.840;2023-05-07T15:21:59;12.25;;;6.45;;
18082;SDS011;9168;51.194;6.840;2023-05-07T15:24:27;12.43;;;6.55;;